createdAt,value
2022-08-20T00:00:23.579Z,23.75
2022-08-20T00:03:03.279Z,23.63
2022-08-20T00:05:39.552Z,22.52
2022-08-20T00:08:09.780Z,23.23
2022-08-20T00:10:42.931Z,23.52
2022-08-20T00:13:18.287Z,23.73
2022-08-20T00:15:48.429Z,22.25
2022-08-20T00:18:17.811Z,24.23
2022-08-20T00:20:51.324Z,23.00
2022-08-20T00:23:21.714Z,23.90
2022-08-20T00:25:52.426Z,24.67
2022-08-20T00:28:21.709Z,25.95
2022-08-20T00:30:51.035Z,25.23
2022-08-20T00:33:24.838Z,26.77
2022-08-20T00:35:57.389Z,28.00
2022-08-20T00:38:27.428Z,28.77
2022-08-20T00:40:58.966Z,30.58
2022-08-20T00:43:39.084Z,29.03
2022-08-20T00:46:13.010Z,30.70
2022-08-20T00:48:45.073Z,27.92
2022-08-20T00:51:29.882Z,19.13
2022-08-20T00:54:16.680Z,18.30
2022-08-20T00:56:48.725Z,13.60
2022-08-20T00:59:24.256Z,11.55
2022-08-20T01:01:55.697Z,12.32
2022-08-20T01:04:32.400Z,12.27
2022-08-20T01:07:02.628Z,13.00
2022-08-20T01:09:50.329Z,13.05
2022-08-20T01:12:21.459Z,15.15
2022-08-20T01:14:50.605Z,17.45
2022-08-20T01:17:24.681Z,20.23
2022-08-20T01:20:08.894Z,13.23
2022-08-20T01:23:19.170Z,12.82
2022-08-20T01:25:55.707Z,15.35
2022-08-20T01:28:29.378Z,15.20
2022-08-20T01:30:58.841Z,18.48
2022-08-20T01:33:28.034Z,18.80
2022-08-20T01:35:56.919Z,25.17
2022-08-20T01:38:25.911Z,12.32
2022-08-20T01:41:13.604Z,10.13
2022-08-20T01:43:42.959Z,8.88
2022-08-20T01:46:13.222Z,10.18
2022-08-20T01:48:45.038Z,8.63
2022-08-20T01:51:21.787Z,10.85
2022-08-20T01:53:56.075Z,10.20
2022-08-20T01:56:30.139Z,12.98
2022-08-20T01:59:01.601Z,15.43
2022-08-20T02:01:46.360Z,14.60
2022-08-20T02:04:19.110Z,15.65
2022-08-20T02:06:57.513Z,22.70
2022-08-20T02:09:32.949Z,20.77
2022-08-20T02:12:04.191Z,18.92
2022-08-20T02:14:34.845Z,20.55
2022-08-20T02:17:03.746Z,18.25
2022-08-20T02:19:46.998Z,15.35
2022-08-20T02:22:49.842Z,12.32
2022-08-20T02:25:23.108Z,14.20
2022-08-20T02:27:55.158Z,13.65
2022-08-20T02:30:30.526Z,13.02
2022-08-20T02:33:01.367Z,11.27
2022-08-20T02:35:33.869Z,14.75
2022-08-20T02:38:04.041Z,12.82
2022-08-20T02:40:34.385Z,16.10
2022-08-20T02:43:05.567Z,12.65
2022-08-20T02:45:40.364Z,9.93
2022-08-20T02:48:09.544Z,9.93
2022-08-20T02:50:38.495Z,13.75
2022-08-20T02:53:07.350Z,11.68
2022-08-20T02:55:36.382Z,9.15
2022-08-20T02:58:05.357Z,11.60
2022-08-20T03:00:38.420Z,10.65
2022-08-20T03:03:12.237Z,13.02
2022-08-20T03:05:44.210Z,10.13
2022-08-20T03:08:15.794Z,15.15
2022-08-20T03:10:47.952Z,12.20
2022-08-20T03:13:17.785Z,17.08
2022-08-20T03:15:58.093Z,14.70
2022-08-20T03:18:36.363Z,10.13
2022-08-20T03:21:07.690Z,14.82
2022-08-20T03:23:40.341Z,12.23
2022-08-20T03:26:12.691Z,10.68
2022-08-20T03:28:43.030Z,11.00
2022-08-20T03:31:14.727Z,9.50
2022-08-20T03:33:52.660Z,10.07
2022-08-20T03:36:28.592Z,9.05
2022-08-20T03:39:03.471Z,10.80
2022-08-20T03:41:33.202Z,11.85
2022-08-20T03:44:01.888Z,11.15
2022-08-20T03:46:31.039Z,14.52
2022-08-20T03:49:00.758Z,11.32
2022-08-20T03:51:35.136Z,9.35
2022-08-20T03:54:21.246Z,6.90
2022-08-20T03:56:50.460Z,8.15
2022-08-20T03:59:19.322Z,8.07
2022-08-20T04:01:48.321Z,6.93
2022-08-20T04:04:17.515Z,8.93
2022-08-20T04:06:48.514Z,8.25
2022-08-20T04:09:17.912Z,7.70
2022-08-20T04:11:46.900Z,7.38
2022-08-20T04:14:18.503Z,7.82
2022-08-20T04:16:49.153Z,7.13
2022-08-20T04:19:18.681Z,6.78
2022-08-20T04:21:49.342Z,6.80
2022-08-20T04:24:30.149Z,12.35
2022-08-20T04:27:03.594Z,6.13
2022-08-20T04:29:35.617Z,6.40
2022-08-20T04:32:07.101Z,5.47
2022-08-20T04:34:37.511Z,10.63
2022-08-20T04:37:16.967Z,8.50
2022-08-20T04:39:46.675Z,6.22
2022-08-20T04:42:18.277Z,6.60
2022-08-20T04:44:47.431Z,7.82
2022-08-20T04:47:23.951Z,6.82
2022-08-20T04:50:03.733Z,12.93
2022-08-20T04:52:33.930Z,35.28
2022-08-20T04:55:03.506Z,70.07
2022-08-20T04:57:40.090Z,23.75
2022-08-20T05:00:18.855Z,79.47
2022-08-20T05:02:47.956Z,24.55
2022-08-20T05:05:16.667Z,37.38
2022-08-20T05:07:47.362Z,10.95
2022-08-20T05:10:19.894Z,25.70
2022-08-20T05:12:56.628Z,7.88
2022-08-20T05:15:26.953Z,6.70
2022-08-20T05:17:58.568Z,6.93
2022-08-20T05:20:33.291Z,14.77
2022-08-20T05:23:03.829Z,11.55
2022-08-20T05:25:34.064Z,6.85
2022-08-20T05:28:13.419Z,10.40
2022-08-20T05:30:47.579Z,15.90
2022-08-20T05:33:21.213Z,10.55
2022-08-20T05:35:53.730Z,9.35
2022-08-20T05:38:26.153Z,8.45
2022-08-20T05:40:56.534Z,12.50
2022-08-20T05:43:25.698Z,9.77
2022-08-20T05:45:56.772Z,15.10
2022-08-20T05:48:26.735Z,13.80
2022-08-20T05:50:55.919Z,8.98
2022-08-20T05:53:26.481Z,13.40
2022-08-20T05:55:55.945Z,10.88
2022-08-20T05:58:30.170Z,9.65
2022-08-20T06:01:00.524Z,18.33
2022-08-20T06:06:45.773Z,39.97
2022-08-20T06:09:30.753Z,11.48
2022-08-20T06:12:10.441Z,20.50
2022-08-20T06:14:39.419Z,9.20
2022-08-20T06:17:18.945Z,8.18
2022-08-20T06:19:51.677Z,8.52
2022-08-20T06:22:24.397Z,5.07
2022-08-20T06:24:56.565Z,6.60
2022-08-20T06:27:27.299Z,8.00
2022-08-20T06:29:56.200Z,6.45
2022-08-20T06:32:32.109Z,5.95
2022-08-20T06:35:04.931Z,6.45
2022-08-20T06:37:37.604Z,5.07
2022-08-20T06:40:13.633Z,6.80
2022-08-20T06:42:48.869Z,5.22
2022-08-20T06:45:26.006Z,6.00
2022-08-20T06:47:59.079Z,6.70
2022-08-20T06:50:33.027Z,7.18
2022-08-20T06:53:01.906Z,5.15
2022-08-20T06:55:32.218Z,4.40
2022-08-20T06:58:04.166Z,5.70
2022-08-20T07:00:34.898Z,5.65
2022-08-20T07:03:04.948Z,7.55
2022-08-20T07:05:37.815Z,5.78
2022-08-20T07:08:07.142Z,5.88
2022-08-20T07:10:36.254Z,5.68
2022-08-20T07:13:05.686Z,5.22
2022-08-20T07:15:34.655Z,5.78
2022-08-20T07:18:06.622Z,5.78
2022-08-20T07:20:37.996Z,5.82
2022-08-20T07:23:07.887Z,5.25
2022-08-20T07:25:37.271Z,5.72
2022-08-20T07:28:13.116Z,5.00
2022-08-20T07:31:13.764Z,5.65
2022-08-20T07:33:44.545Z,5.95
2022-08-20T07:38:52.411Z,6.25
2022-08-20T07:41:22.644Z,5.95
2022-08-20T07:43:52.366Z,5.47
2022-08-20T07:46:34.075Z,5.22
2022-08-20T07:49:06.314Z,5.97
2022-08-20T07:54:06.402Z,6.07
2022-08-20T07:56:36.591Z,6.40
2022-08-20T07:59:09.289Z,6.85
2022-08-20T08:01:42.127Z,8.32
2022-08-20T08:06:52.194Z,6.60
2022-08-20T08:11:52.164Z,7.03
2022-08-20T08:14:28.181Z,6.35
2022-08-20T08:17:01.572Z,7.05
2022-08-20T08:19:39.740Z,7.40
2022-08-20T08:22:14.978Z,6.68
2022-08-20T08:24:56.825Z,6.32
2022-08-20T08:27:27.913Z,9.32
2022-08-20T08:29:59.217Z,8.60
2022-08-20T08:32:32.543Z,6.50
2022-08-20T08:35:10.497Z,6.50
2022-08-20T08:37:40.343Z,7.32
2022-08-20T08:40:10.498Z,10.57
2022-08-20T08:42:49.857Z,6.70
2022-08-20T08:45:21.653Z,6.60
2022-08-20T08:47:56.522Z,7.68
2022-08-20T08:50:54.240Z,6.82
2022-08-20T08:53:28.578Z,7.22
2022-08-20T08:55:58.051Z,7.93
2022-08-20T08:58:29.698Z,6.53
2022-08-20T09:01:02.111Z,8.23
2022-08-20T09:03:39.368Z,10.63
2022-08-20T09:06:09.153Z,10.85
2022-08-20T09:08:49.558Z,11.30
2022-08-20T09:11:20.519Z,13.35
2022-08-20T09:13:53.509Z,11.88
2022-08-20T09:16:26.159Z,12.48
2022-08-20T09:19:00.448Z,12.00
2022-08-20T09:21:29.795Z,11.45
2022-08-20T09:23:59.324Z,11.68
2022-08-20T09:26:29.155Z,11.82
2022-08-20T09:28:58.337Z,13.30
2022-08-20T09:31:28.811Z,12.38
2022-08-20T09:33:59.355Z,12.85
2022-08-20T09:36:32.721Z,14.45
2022-08-20T09:39:03.498Z,12.65
2022-08-20T09:41:34.672Z,12.63
2022-08-20T09:44:04.034Z,15.77
2022-08-20T09:46:33.015Z,15.32
2022-08-20T09:49:02.048Z,13.23
2022-08-20T09:51:38.397Z,14.73
2022-08-20T09:54:07.952Z,12.00
2022-08-20T09:56:37.309Z,8.90
2022-08-20T09:59:06.979Z,7.53
2022-08-20T10:01:36.311Z,7.15
2022-08-20T10:04:05.554Z,8.13
2022-08-20T10:06:41.356Z,6.65
2022-08-20T10:09:10.545Z,7.10
2022-08-20T10:11:39.410Z,6.93
2022-08-20T10:14:10.634Z,6.10
2022-08-20T10:16:39.450Z,6.03
2022-08-20T10:19:08.280Z,5.43
2022-08-20T10:21:38.992Z,7.90
2022-08-20T10:24:08.408Z,5.75
2022-08-20T10:26:39.685Z,6.78
2022-08-20T10:29:08.945Z,6.40
2022-08-20T10:31:59.995Z,6.15
2022-08-20T10:34:29.172Z,6.68
2022-08-20T10:36:59.892Z,6.32
2022-08-20T10:39:29.057Z,6.97
2022-08-20T10:42:00.740Z,4.57
2022-08-20T10:44:29.676Z,5.60
2022-08-20T10:46:58.732Z,5.53
2022-08-20T10:49:46.098Z,14.18
2022-08-20T10:52:33.526Z,16.83
2022-08-20T10:55:05.144Z,25.33
2022-08-20T10:57:37.349Z,20.08
2022-08-20T11:00:08.938Z,19.55
2022-08-20T11:02:38.376Z,14.50
2022-08-20T11:05:08.257Z,17.10
2022-08-20T11:10:29.160Z,16.88
2022-08-20T11:13:04.123Z,25.35
2022-08-20T11:15:35.580Z,24.40
2022-08-20T11:18:04.889Z,30.50
2022-08-20T11:20:34.618Z,46.03
2022-08-20T11:23:03.893Z,45.95
2022-08-20T11:25:33.451Z,46.28
2022-08-20T11:28:02.624Z,47.30
2022-08-20T11:30:34.879Z,49.20
2022-08-20T11:35:49.484Z,56.00
2022-08-20T11:38:20.096Z,52.85
2022-08-20T11:40:49.161Z,56.13
2022-08-20T11:43:18.469Z,56.97
2022-08-20T11:45:51.251Z,56.33
2022-08-20T11:48:20.552Z,63.03
2022-08-20T11:50:50.050Z,72.30
2022-08-20T11:53:19.518Z,69.03
2022-08-20T11:55:49.166Z,64.18
2022-08-20T11:58:18.910Z,59.72
2022-08-20T12:00:48.139Z,57.28
2022-08-20T12:03:17.304Z,54.10
2022-08-20T12:05:47.872Z,52.25
2022-08-20T12:08:26.704Z,48.70
2022-08-20T12:11:03.731Z,48.67
2022-08-20T12:13:47.979Z,48.42
2022-08-20T12:16:19.933Z,46.20
2022-08-20T12:18:50.386Z,44.08
2022-08-20T12:21:19.529Z,42.97
2022-08-20T12:23:48.514Z,42.85
2022-08-20T12:26:17.831Z,43.72
2022-08-20T12:28:46.829Z,40.65
2022-08-20T12:31:15.919Z,38.08
2022-08-20T12:33:45.078Z,36.33
2022-08-20T12:36:14.069Z,30.05
2022-08-20T12:38:43.304Z,30.27
2022-08-20T12:41:12.488Z,34.15
2022-08-20T12:43:41.351Z,34.53
2022-08-20T12:46:10.461Z,37.53
2022-08-20T12:48:39.373Z,33.63
2022-08-20T12:51:08.550Z,33.17
2022-08-20T12:53:37.525Z,32.67
2022-08-20T12:56:06.885Z,31.52
2022-08-20T12:58:36.095Z,26.45
2022-08-20T13:01:05.099Z,22.23
2022-08-20T13:03:34.247Z,21.83
2022-08-20T13:06:12.429Z,21.55
2022-08-20T13:08:41.262Z,23.50
2022-08-20T13:11:10.205Z,21.95
2022-08-20T13:13:39.363Z,21.77
2022-08-20T13:16:08.462Z,21.27
2022-08-20T13:18:37.582Z,20.50
2022-08-20T13:21:06.855Z,19.92
2022-08-20T13:23:35.701Z,18.70
2022-08-20T13:26:06.340Z,18.40
2022-08-20T13:28:35.488Z,17.20
2022-08-20T13:31:04.557Z,16.80
2022-08-20T13:33:34.078Z,16.63
2022-08-20T13:36:03.142Z,17.17
2022-08-20T13:38:32.847Z,15.93
2022-08-20T13:41:01.944Z,15.85
2022-08-20T13:43:31.406Z,16.70
2022-08-20T13:46:00.307Z,16.83
2022-08-20T13:48:29.276Z,16.00
2022-08-20T13:50:58.945Z,15.50
2022-08-20T13:53:28.280Z,16.23
2022-08-20T13:55:57.361Z,16.95
2022-08-20T13:58:26.478Z,14.70
2022-08-20T14:00:55.513Z,14.38
2022-08-20T14:03:25.277Z,14.52
2022-08-20T14:05:54.954Z,14.48
2022-08-20T14:08:25.137Z,14.80
2022-08-20T14:10:54.273Z,13.93
2022-08-20T14:13:25.727Z,14.55
2022-08-20T14:15:55.245Z,13.97
2022-08-20T14:18:24.640Z,14.18
2022-08-20T14:20:53.459Z,14.18
2022-08-20T14:23:22.149Z,14.95
2022-08-20T14:25:52.237Z,15.45
2022-08-20T14:28:24.180Z,14.50
2022-08-20T14:30:53.948Z,14.63
2022-08-20T14:33:24.706Z,13.63
2022-08-20T14:35:54.169Z,14.43
2022-08-20T14:38:23.313Z,13.35
2022-08-20T14:40:52.185Z,13.77
2022-08-20T14:43:21.232Z,11.75
2022-08-20T14:45:50.143Z,12.57
2022-08-20T14:48:19.223Z,13.77
2022-08-20T14:50:48.312Z,11.13
2022-08-20T14:53:17.279Z,11.88
2022-08-20T14:55:46.384Z,11.85
2022-08-20T14:58:17.922Z,10.57
2022-08-20T15:00:47.625Z,11.88
2022-08-20T15:03:16.624Z,11.30
2022-08-20T15:05:45.491Z,10.57
2022-08-20T15:08:14.373Z,10.45
2022-08-20T15:10:44.477Z,10.48
2022-08-20T15:13:13.461Z,11.00
2022-08-20T15:15:42.697Z,10.63
2022-08-20T15:18:11.576Z,11.13
2022-08-20T15:20:40.464Z,10.25
2022-08-20T15:23:09.614Z,10.63
2022-08-20T15:25:38.799Z,10.52
2022-08-20T15:28:10.912Z,10.07
2022-08-20T15:30:42.143Z,11.52
2022-08-20T15:33:11.878Z,11.43
2022-08-20T15:35:40.823Z,11.93
2022-08-20T15:38:09.775Z,11.00
2022-08-20T15:40:38.852Z,13.43
2022-08-20T15:43:07.925Z,11.73
2022-08-20T15:45:37.822Z,13.43
2022-08-20T15:48:22.199Z,15.88
2022-08-20T15:50:57.764Z,14.70
2022-08-20T15:53:39.192Z,13.48
2022-08-20T15:56:26.372Z,13.57
2022-08-20T15:59:13.168Z,14.43
2022-08-20T16:02:03.926Z,14.30
2022-08-20T16:04:53.814Z,14.13
2022-08-20T16:07:28.950Z,14.13
2022-08-20T16:10:17.987Z,14.57
2022-08-20T16:12:53.639Z,15.05
2022-08-20T16:15:30.959Z,15.15
2022-08-20T16:18:25.859Z,14.38
2022-08-20T16:20:57.383Z,13.45
2022-08-20T16:23:36.526Z,14.85
2022-08-20T16:26:14.295Z,15.15
2022-08-20T16:29:03.578Z,16.00
2022-08-20T16:31:41.528Z,15.25
2022-08-20T16:34:34.649Z,15.35
2022-08-20T16:37:11.815Z,13.98
2022-08-20T16:39:50.351Z,15.35
2022-08-20T16:42:25.707Z,15.13
2022-08-20T16:44:58.876Z,14.73
2022-08-20T16:47:31.333Z,14.88
2022-08-20T16:50:02.961Z,16.25
2022-08-20T16:52:32.057Z,17.27
2022-08-20T16:55:01.051Z,16.77
2022-08-20T16:57:30.985Z,16.55
2022-08-20T17:00:26.316Z,16.45
2022-08-20T17:03:04.725Z,16.63
2022-08-20T17:05:49.812Z,17.38
2022-08-20T17:08:36.021Z,16.35
2022-08-20T17:11:15.751Z,17.65
2022-08-20T17:13:49.937Z,16.60
2022-08-20T17:16:21.379Z,18.08
2022-08-20T17:18:55.425Z,17.03
2022-08-20T17:21:36.452Z,17.75
2022-08-20T17:24:22.088Z,18.55
2022-08-20T17:27:00.909Z,19.52
2022-08-20T17:29:33.812Z,19.27
2022-08-20T17:32:17.795Z,18.42
2022-08-20T17:34:54.644Z,18.50
2022-08-20T17:37:28.114Z,19.08
2022-08-20T17:40:12.757Z,18.17
2022-08-20T17:43:02.414Z,19.73
2022-08-20T17:45:44.035Z,19.77
2022-08-20T17:48:21.184Z,17.53
2022-08-20T17:50:51.550Z,16.30
2022-08-20T17:53:28.049Z,16.48
2022-08-20T17:56:04.297Z,14.52
2022-08-20T17:58:54.258Z,14.90
2022-08-20T18:01:25.342Z,14.90
2022-08-20T18:03:54.700Z,15.35
2022-08-20T18:06:48.879Z,15.18
2022-08-20T18:09:22.794Z,15.50
2022-08-20T18:12:04.477Z,18.55
2022-08-20T18:14:54.639Z,21.07
2022-08-20T18:17:55.486Z,18.42
2022-08-20T18:20:24.836Z,17.92
2022-08-20T18:23:04.653Z,17.65
2022-08-20T18:25:43.681Z,17.15
2022-08-20T18:28:42.265Z,15.63
2022-08-20T18:31:26.483Z,16.90
2022-08-20T18:33:56.506Z,16.58
2022-08-20T18:36:31.175Z,17.33
2022-08-20T18:39:05.678Z,16.35
2022-08-20T18:41:38.085Z,16.13
2022-08-20T18:46:51.500Z,16.08
2022-08-20T18:49:30.886Z,16.23
2022-08-20T18:52:10.094Z,16.10
2022-08-20T18:54:42.190Z,17.48
2022-08-20T18:57:25.043Z,17.17
2022-08-20T19:00:13.419Z,17.90
2022-08-20T19:02:59.112Z,17.27
2022-08-20T19:05:35.885Z,16.15
2022-08-20T19:08:06.915Z,16.20
2022-08-20T19:10:58.023Z,14.93
2022-08-20T19:13:30.196Z,14.68
2022-08-20T19:16:10.740Z,16.48
2022-08-20T19:18:48.505Z,15.07
2022-08-20T19:21:20.467Z,17.70
2022-08-20T19:23:52.987Z,15.73
2022-08-20T19:26:25.798Z,15.88
2022-08-20T19:29:00.809Z,16.90
2022-08-20T19:31:34.289Z,16.27
2022-08-20T19:34:20.339Z,16.20
2022-08-20T19:36:57.615Z,16.33
2022-08-20T19:39:28.432Z,16.00
2022-08-20T19:42:03.112Z,17.85
2022-08-20T19:44:39.322Z,14.90
2022-08-20T19:47:19.842Z,16.10
2022-08-20T19:50:23.276Z,16.65
2022-08-20T19:53:28.811Z,14.60
2022-08-20T19:56:11.735Z,15.93
2022-08-20T19:58:41.332Z,15.65
2022-08-20T20:01:19.092Z,15.30
2022-08-20T20:04:04.331Z,16.20
2022-08-20T20:06:42.696Z,17.15
2022-08-20T20:09:30.423Z,18.00
2022-08-20T20:12:06.123Z,16.48
2022-08-20T20:14:37.181Z,17.25
2022-08-20T20:17:08.684Z,17.88
2022-08-20T20:19:57.849Z,17.23
2022-08-20T20:22:34.946Z,16.27
2022-08-20T20:25:23.151Z,17.60
2022-08-20T20:27:58.560Z,17.08
2022-08-20T20:30:31.455Z,17.92
2022-08-20T20:33:11.515Z,16.83
2022-08-20T20:35:41.140Z,17.25
2022-08-20T20:38:15.735Z,16.88
2022-08-20T20:40:50.867Z,17.65
2022-08-20T20:43:38.263Z,17.75
2022-08-20T20:46:24.440Z,15.63
2022-08-20T20:49:02.003Z,16.65
2022-08-20T20:51:34.995Z,17.33
2022-08-20T20:54:09.074Z,16.17
2022-08-20T20:56:41.452Z,16.02
2022-08-20T21:01:49.054Z,15.95
2022-08-20T21:04:24.684Z,15.82
2022-08-20T21:06:55.673Z,16.92
2022-08-20T21:09:26.605Z,17.02
2022-08-20T21:11:55.693Z,16.52
2022-08-20T21:14:24.507Z,18.45
2022-08-20T21:16:55.128Z,18.13
2022-08-20T21:19:24.368Z,17.05
2022-08-20T21:21:53.213Z,16.33
2022-08-20T21:24:22.607Z,15.88
2022-08-20T21:26:53.830Z,18.00
2022-08-20T21:29:32.725Z,17.85
2022-08-20T21:32:02.007Z,18.98
2022-08-20T21:34:31.119Z,16.02
2022-08-20T21:37:00.123Z,17.73
2022-08-20T21:39:29.630Z,18.52
2022-08-20T21:42:03.263Z,18.00
2022-08-20T21:44:33.627Z,17.23
2022-08-20T21:47:03.250Z,16.92
2022-08-20T21:49:33.100Z,16.90
2022-08-20T21:52:02.427Z,18.27
2022-08-20T21:54:31.563Z,18.35
2022-08-20T21:57:10.415Z,16.40
2022-08-20T21:59:40.361Z,18.63
2022-08-20T22:02:10.272Z,18.83
2022-08-20T22:04:39.155Z,16.42
2022-08-20T22:07:08.305Z,18.50
2022-08-20T22:09:39.570Z,18.17
2022-08-20T22:12:17.146Z,17.65
2022-08-20T22:14:47.030Z,17.77
2022-08-20T22:17:16.395Z,17.65
2022-08-20T22:19:45.906Z,15.77
2022-08-20T22:22:16.604Z,17.48
2022-08-20T22:24:46.754Z,17.83
2022-08-20T22:27:16.376Z,18.75
2022-08-20T22:29:45.507Z,16.80
2022-08-20T22:32:15.616Z,18.58
2022-08-20T22:34:46.616Z,18.48
2022-08-20T22:37:16.432Z,18.08
2022-08-20T22:39:45.617Z,18.42
2022-08-20T22:42:14.916Z,18.40
2022-08-20T22:44:43.637Z,19.13
2022-08-20T22:47:15.711Z,17.80
2022-08-20T22:52:14.478Z,17.67
2022-08-20T22:54:44.759Z,19.02
2022-08-20T22:57:15.683Z,18.95
2022-08-20T22:59:52.882Z,17.63
2022-08-20T23:02:24.515Z,17.17
2022-08-20T23:04:53.733Z,18.75
2022-08-20T23:07:22.790Z,19.63
2022-08-20T23:09:51.491Z,20.60
2022-08-20T23:12:20.772Z,18.98
2022-08-20T23:14:49.427Z,20.55
2022-08-20T23:17:20.167Z,20.23
2022-08-20T23:19:50.393Z,18.50
2022-08-20T23:22:20.452Z,19.90
2022-08-20T23:24:49.923Z,19.85
2022-08-20T23:27:21.740Z,19.80
2022-08-20T23:29:50.673Z,19.65
2022-08-20T23:32:19.690Z,19.42
2022-08-20T23:34:48.744Z,19.73
2022-08-20T23:37:21.866Z,19.88
2022-08-20T23:39:51.013Z,19.38
2022-08-20T23:42:20.373Z,19.48
2022-08-20T23:44:49.314Z,20.52
2022-08-20T23:47:22.727Z,19.48
2022-08-20T23:49:52.441Z,19.70
2022-08-20T23:52:21.617Z,19.50
2022-08-20T23:54:51.134Z,20.20
2022-08-20T23:57:21.043Z,19.90
2022-08-20T23:59:53.049Z,18.65
